sensor_id;sensor_type;location;lat;lon;timestamp;P1;durP1;ratioP1;P2;durP2;ratioP2
10463;SDS011;5279;42.048;24.638;2022-09-09T00:02:24;4.77;;;4.30;;
10463;SDS011;5279;42.048;24.638;2022-09-09T00:04:57;5.07;;;4.67;;
10463;SDS011;5279;42.048;24.638;2022-09-09T00:07:34;6.03;;;4.30;;
10463;SDS011;5279;42.048;24.638;2022-09-09T00:10:11;5.27;;;4.53;;
10463;SDS011;5279;42.048;24.638;2022-09-09T00:12:46;4.70;;;4.27;;
10463;SDS011;5279;42.048;24.638;2022-09-09T00:15:22;7.03;;;4.97;;
10463;SDS011;5279;42.048;24.638;2022-09-09T00:17:54;5.50;;;4.40;;
10463;SDS011;5279;42.048;24.638;2022-09-09T00:20:26;5.97;;;4.90;;
10463;SDS011;5279;42.048;24.638;2022-09-09T00:23:00;4.97;;;4.57;;
10463;SDS011;5279;42.048;24.638;2022-09-09T00:25:40;4.80;;;4.40;;
10463;SDS011;5279;42.048;24.638;2022-09-09T00:28:17;5.60;;;5.00;;
10463;SDS011;5279;42.048;24.638;2022-09-09T00:30:46;5.30;;;4.90;;
10463;SDS011;5279;42.048;24.638;2022-09-09T00:33:14;7.63;;;4.93;;
10463;SDS011;5279;42.048;24.638;2022-09-09T00:35:44;5.80;;;4.93;;
10463;SDS011;5279;42.048;24.638;2022-09-09T00:38:16;5.37;;;4.40;;
10463;SDS011;5279;42.048;24.638;2022-09-09T00:40:50;5.30;;;4.80;;
10463;SDS011;5279;42.048;24.638;2022-09-09T00:43:25;6.97;;;4.50;;
10463;SDS011;5279;42.048;24.638;2022-09-09T00:46:07;4.90;;;4.50;;
10463;SDS011;5279;42.048;24.638;2022-09-09T00:48:50;5.87;;;4.57;;
10463;SDS011;5279;42.048;24.638;2022-09-09T00:51:26;6.33;;;5.37;;
10463;SDS011;5279;42.048;24.638;2022-09-09T00:54:09;5.83;;;4.90;;
10463;SDS011;5279;42.048;24.638;2022-09-09T00:56:47;5.77;;;5.33;;
10463;SDS011;5279;42.048;24.638;2022-09-09T00:59:24;5.60;;;5.10;;
10463;SDS011;5279;42.048;24.638;2022-09-09T01:02:02;5.30;;;4.80;;
10463;SDS011;5279;42.048;24.638;2022-09-09T01:04:35;5.63;;;5.13;;
10463;SDS011;5279;42.048;24.638;2022-09-09T01:07:04;8.83;;;5.10;;
10463;SDS011;5279;42.048;24.638;2022-09-09T01:09:44;5.47;;;4.97;;
10463;SDS011;5279;42.048;24.638;2022-09-09T01:12:24;5.37;;;4.80;;
10463;SDS011;5279;42.048;24.638;2022-09-09T01:14:56;5.80;;;5.20;;
10463;SDS011;5279;42.048;24.638;2022-09-09T01:17:30;5.27;;;4.87;;
10463;SDS011;5279;42.048;24.638;2022-09-09T01:20:04;5.60;;;5.00;;
10463;SDS011;5279;42.048;24.638;2022-09-09T01:22:40;7.17;;;5.70;;
10463;SDS011;5279;42.048;24.638;2022-09-09T01:25:56;5.57;;;5.00;;
10463;SDS011;5279;42.048;24.638;2022-09-09T01:28:38;7.10;;;4.97;;
10463;SDS011;5279;42.048;24.638;2022-09-09T01:31:06;6.83;;;5.57;;
10463;SDS011;5279;42.048;24.638;2022-09-09T01:33:38;5.57;;;5.07;;
10463;SDS011;5279;42.048;24.638;2022-09-09T01:36:06;5.43;;;5.03;;
10463;SDS011;5279;42.048;24.638;2022-09-09T01:38:37;5.07;;;4.57;;
10463;SDS011;5279;42.048;24.638;2022-09-09T01:41:06;5.33;;;4.93;;
10463;SDS011;5279;42.048;24.638;2022-09-09T01:43:36;5.80;;;5.40;;
10463;SDS011;5279;42.048;24.638;2022-09-09T01:46:04;5.77;;;5.10;;
10463;SDS011;5279;42.048;24.638;2022-09-09T01:48:31;7.07;;;5.03;;
10463;SDS011;5279;42.048;24.638;2022-09-09T01:50:59;5.73;;;5.20;;
10463;SDS011;5279;42.048;24.638;2022-09-09T01:53:26;8.97;;;5.47;;
10463;SDS011;5279;42.048;24.638;2022-09-09T01:56:03;6.10;;;5.43;;
10463;SDS011;5279;42.048;24.638;2022-09-09T01:58:43;5.63;;;5.10;;
10463;SDS011;5279;42.048;24.638;2022-09-09T02:01:22;6.13;;;5.63;;
10463;SDS011;5279;42.048;24.638;2022-09-09T02:03:58;6.03;;;5.53;;
10463;SDS011;5279;42.048;24.638;2022-09-09T02:06:33;5.83;;;5.33;;
10463;SDS011;5279;42.048;24.638;2022-09-09T02:09:03;6.20;;;5.50;;
10463;SDS011;5279;42.048;24.638;2022-09-09T02:11:33;6.43;;;5.60;;
10463;SDS011;5279;42.048;24.638;2022-09-09T02:14:03;6.47;;;5.83;;
10463;SDS011;5279;42.048;24.638;2022-09-09T02:16:35;6.43;;;5.70;;
10463;SDS011;5279;42.048;24.638;2022-09-09T02:19:08;6.33;;;5.73;;
10463;SDS011;5279;42.048;24.638;2022-09-09T02:21:39;6.70;;;5.77;;
10463;SDS011;5279;42.048;24.638;2022-09-09T02:24:09;6.73;;;5.97;;
10463;SDS011;5279;42.048;24.638;2022-09-09T02:26:41;6.17;;;5.67;;
10463;SDS011;5279;42.048;24.638;2022-09-09T02:29:11;6.50;;;5.90;;
10463;SDS011;5279;42.048;24.638;2022-09-09T02:31:43;6.20;;;5.70;;
10463;SDS011;5279;42.048;24.638;2022-09-09T02:34:13;6.23;;;5.73;;
10463;SDS011;5279;42.048;24.638;2022-09-09T02:36:42;6.70;;;5.87;;
10463;SDS011;5279;42.048;24.638;2022-09-09T02:39:12;6.87;;;5.70;;
10463;SDS011;5279;42.048;24.638;2022-09-09T02:41:41;7.33;;;6.30;;
10463;SDS011;5279;42.048;24.638;2022-09-09T02:44:09;6.80;;;5.83;;
10463;SDS011;5279;42.048;24.638;2022-09-09T02:46:42;7.07;;;6.47;;
10463;SDS011;5279;42.048;24.638;2022-09-09T02:49:23;7.37;;;6.77;;
10463;SDS011;5279;42.048;24.638;2022-09-09T02:51:57;6.83;;;5.80;;
10463;SDS011;5279;42.048;24.638;2022-09-09T02:54:29;7.00;;;6.40;;
10463;SDS011;5279;42.048;24.638;2022-09-09T02:57:06;6.87;;;6.17;;
10463;SDS011;5279;42.048;24.638;2022-09-09T02:59:37;8.83;;;6.60;;
10463;SDS011;5279;42.048;24.638;2022-09-09T03:02:04;6.70;;;6.00;;
10463;SDS011;5279;42.048;24.638;2022-09-09T03:04:32;7.80;;;6.23;;
10463;SDS011;5279;42.048;24.638;2022-09-09T03:06:59;6.83;;;6.17;;
10463;SDS011;5279;42.048;24.638;2022-09-09T03:09:26;10.60;;;6.47;;
10463;SDS011;5279;42.048;24.638;2022-09-09T03:11:53;8.33;;;6.07;;
10463;SDS011;5279;42.048;24.638;2022-09-09T03:14:24;6.97;;;6.33;;
10463;SDS011;5279;42.048;24.638;2022-09-09T03:16:51;7.10;;;6.50;;
10463;SDS011;5279;42.048;24.638;2022-09-09T03:19:19;7.57;;;6.87;;
10463;SDS011;5279;42.048;24.638;2022-09-09T03:21:46;7.07;;;6.37;;
10463;SDS011;5279;42.048;24.638;2022-09-09T03:24:14;9.33;;;5.83;;
10463;SDS011;5279;42.048;24.638;2022-09-09T03:26:42;6.70;;;6.13;;
10463;SDS011;5279;42.048;24.638;2022-09-09T03:29:10;6.43;;;5.93;;
10463;SDS011;5279;42.048;24.638;2022-09-09T03:31:39;7.47;;;6.47;;
10463;SDS011;5279;42.048;24.638;2022-09-09T03:34:06;7.00;;;6.37;;
10463;SDS011;5279;42.048;24.638;2022-09-09T03:36:35;7.70;;;7.00;;
10463;SDS011;5279;42.048;24.638;2022-09-09T03:39:02;7.47;;;6.73;;
10463;SDS011;5279;42.048;24.638;2022-09-09T03:41:29;7.47;;;6.77;;
10463;SDS011;5279;42.048;24.638;2022-09-09T03:43:56;7.60;;;7.00;;
10463;SDS011;5279;42.048;24.638;2022-09-09T03:46:24;7.43;;;6.57;;
10463;SDS011;5279;42.048;24.638;2022-09-09T03:48:54;7.60;;;6.90;;
10463;SDS011;5279;42.048;24.638;2022-09-09T03:51:22;7.80;;;7.10;;
10463;SDS011;5279;42.048;24.638;2022-09-09T03:53:49;7.07;;;6.50;;
10463;SDS011;5279;42.048;24.638;2022-09-09T03:56:16;11.50;;;7.23;;
10463;SDS011;5279;42.048;24.638;2022-09-09T03:58:43;11.77;;;7.17;;
10463;SDS011;5279;42.048;24.638;2022-09-09T04:01:11;7.40;;;6.80;;
10463;SDS011;5279;42.048;24.638;2022-09-09T04:03:39;7.37;;;6.77;;
10463;SDS011;5279;42.048;24.638;2022-09-09T04:06:09;7.90;;;7.20;;
10463;SDS011;5279;42.048;24.638;2022-09-09T04:08:37;8.70;;;7.97;;
10463;SDS011;5279;42.048;24.638;2022-09-09T04:11:04;7.63;;;6.93;;
10463;SDS011;5279;42.048;24.638;2022-09-09T04:13:32;7.23;;;6.63;;
10463;SDS011;5279;42.048;24.638;2022-09-09T04:16:00;6.80;;;6.10;;
10463;SDS011;5279;42.048;24.638;2022-09-09T04:18:29;7.90;;;7.07;;
10463;SDS011;5279;42.048;24.638;2022-09-09T04:20:57;8.20;;;7.40;;
10463;SDS011;5279;42.048;24.638;2022-09-09T04:23:26;10.00;;;7.30;;
10463;SDS011;5279;42.048;24.638;2022-09-09T04:25:56;8.00;;;7.30;;
10463;SDS011;5279;42.048;24.638;2022-09-09T04:28:25;7.90;;;7.20;;
10463;SDS011;5279;42.048;24.638;2022-09-09T04:30:53;8.13;;;7.43;;
10463;SDS011;5279;42.048;24.638;2022-09-09T04:33:23;7.90;;;7.10;;
10463;SDS011;5279;42.048;24.638;2022-09-09T04:35:52;8.37;;;6.40;;
10463;SDS011;5279;42.048;24.638;2022-09-09T04:38:20;7.47;;;6.77;;
10463;SDS011;5279;42.048;24.638;2022-09-09T04:40:50;10.10;;;6.50;;
10463;SDS011;5279;42.048;24.638;2022-09-09T04:43:19;8.23;;;6.60;;
10463;SDS011;5279;42.048;24.638;2022-09-09T04:45:47;7.40;;;6.80;;
10463;SDS011;5279;42.048;24.638;2022-09-09T04:48:15;7.10;;;6.50;;
10463;SDS011;5279;42.048;24.638;2022-09-09T04:50:42;8.87;;;7.23;;
10463;SDS011;5279;42.048;24.638;2022-09-09T05:12:53;7.80;;;5.87;;
10463;SDS011;5279;42.048;24.638;2022-09-09T05:15:21;6.00;;;5.50;;
10463;SDS011;5279;42.048;24.638;2022-09-09T05:17:48;7.60;;;6.37;;
10463;SDS011;5279;42.048;24.638;2022-09-09T05:20:14;6.20;;;5.63;;
10463;SDS011;5279;42.048;24.638;2022-09-09T05:22:41;6.63;;;6.03;;
10463;SDS011;5279;42.048;24.638;2022-09-09T05:25:09;6.97;;;5.80;;
10463;SDS011;5279;42.048;24.638;2022-09-09T05:27:36;5.47;;;5.00;;
10463;SDS011;5279;42.048;24.638;2022-09-09T05:30:05;5.97;;;5.47;;
10463;SDS011;5279;42.048;24.638;2022-09-09T05:32:33;6.10;;;5.43;;
10463;SDS011;5279;42.048;24.638;2022-09-09T05:35:00;5.70;;;5.30;;
10463;SDS011;5279;42.048;24.638;2022-09-09T05:37:27;5.30;;;4.90;;
10463;SDS011;5279;42.048;24.638;2022-09-09T05:39:55;5.33;;;4.83;;
10463;SDS011;5279;42.048;24.638;2022-09-09T05:42:23;5.87;;;4.97;;
10463;SDS011;5279;42.048;24.638;2022-09-09T05:44:49;5.50;;;5.00;;
10463;SDS011;5279;42.048;24.638;2022-09-09T05:47:20;5.70;;;5.20;;
10463;SDS011;5279;42.048;24.638;2022-09-09T05:49:47;5.80;;;5.30;;
10463;SDS011;5279;42.048;24.638;2022-09-09T05:52:14;9.53;;;5.20;;
10463;SDS011;5279;42.048;24.638;2022-09-09T05:54:41;5.33;;;4.90;;
10463;SDS011;5279;42.048;24.638;2022-09-09T05:57:08;5.67;;;5.17;;
10463;SDS011;5279;42.048;24.638;2022-09-09T05:59:35;5.30;;;4.80;;
10463;SDS011;5279;42.048;24.638;2022-09-09T06:02:02;6.70;;;5.13;;
10463;SDS011;5279;42.048;24.638;2022-09-09T06:04:30;5.63;;;5.13;;
10463;SDS011;5279;42.048;24.638;2022-09-09T06:06:57;5.07;;;4.67;;
10463;SDS011;5279;42.048;24.638;2022-09-09T06:09:24;6.50;;;4.87;;
10463;SDS011;5279;42.048;24.638;2022-09-09T06:11:51;7.27;;;5.00;;
10463;SDS011;5279;42.048;24.638;2022-09-09T06:14:19;7.10;;;5.20;;
10463;SDS011;5279;42.048;24.638;2022-09-09T06:16:46;5.33;;;4.83;;
10463;SDS011;5279;42.048;24.638;2022-09-09T06:19:13;5.20;;;4.80;;
10463;SDS011;5279;42.048;24.638;2022-09-09T06:21:41;6.50;;;5.17;;
10463;SDS011;5279;42.048;24.638;2022-09-09T06:24:09;6.07;;;4.83;;
10463;SDS011;5279;42.048;24.638;2022-09-09T06:26:39;6.50;;;5.23;;
10463;SDS011;5279;42.048;24.638;2022-09-09T06:29:06;7.27;;;5.17;;
10463;SDS011;5279;42.048;24.638;2022-09-09T06:31:34;5.73;;;5.03;;
10463;SDS011;5279;42.048;24.638;2022-09-09T06:34:04;5.60;;;5.10;;
10463;SDS011;5279;42.048;24.638;2022-09-09T06:36:32;8.80;;;4.63;;
10463;SDS011;5279;42.048;24.638;2022-09-09T06:39:03;7.63;;;5.03;;
10463;SDS011;5279;42.048;24.638;2022-09-09T06:41:31;4.80;;;4.40;;
10463;SDS011;5279;42.048;24.638;2022-09-09T06:43:59;5.90;;;4.57;;
10463;SDS011;5279;42.048;24.638;2022-09-09T06:46:26;7.20;;;4.63;;
10463;SDS011;5279;42.048;24.638;2022-09-09T06:48:55;6.03;;;4.20;;
10463;SDS011;5279;42.048;24.638;2022-09-09T06:51:25;5.03;;;4.50;;
10463;SDS011;5279;42.048;24.638;2022-09-09T06:53:53;5.37;;;4.60;;
10463;SDS011;5279;42.048;24.638;2022-09-09T06:56:22;5.27;;;4.77;;
10463;SDS011;5279;42.048;24.638;2022-09-09T06:58:52;6.07;;;4.57;;
10463;SDS011;5279;42.048;24.638;2022-09-09T07:01:20;7.70;;;4.67;;
10463;SDS011;5279;42.048;24.638;2022-09-09T07:03:49;5.83;;;4.57;;
10463;SDS011;5279;42.048;24.638;2022-09-09T07:06:18;5.17;;;4.27;;
10463;SDS011;5279;42.048;24.638;2022-09-09T07:08:48;5.23;;;4.07;;
10463;SDS011;5279;42.048;24.638;2022-09-09T07:11:16;4.77;;;4.37;;
10463;SDS011;5279;42.048;24.638;2022-09-09T07:13:45;8.57;;;4.83;;
10463;SDS011;5279;42.048;24.638;2022-09-09T07:16:13;7.00;;;4.50;;
10463;SDS011;5279;42.048;24.638;2022-09-09T07:18:41;5.73;;;4.30;;
10463;SDS011;5279;42.048;24.638;2022-09-09T07:21:08;6.27;;;4.50;;
10463;SDS011;5279;42.048;24.638;2022-09-09T07:23:37;4.47;;;4.07;;
10463;SDS011;5279;42.048;24.638;2022-09-09T07:26:07;8.93;;;4.40;;
10463;SDS011;5279;42.048;24.638;2022-09-09T07:28:35;5.23;;;4.37;;
10463;SDS011;5279;42.048;24.638;2022-09-09T07:31:04;7.10;;;4.23;;
10463;SDS011;5279;42.048;24.638;2022-09-09T07:33:32;7.43;;;4.23;;
10463;SDS011;5279;42.048;24.638;2022-09-09T07:36:04;6.07;;;3.80;;
10463;SDS011;5279;42.048;24.638;2022-09-09T07:38:37;4.53;;;3.77;;
10463;SDS011;5279;42.048;24.638;2022-09-09T07:41:05;8.83;;;3.43;;
10463;SDS011;5279;42.048;24.638;2022-09-09T07:43:36;3.90;;;3.60;;
10463;SDS011;5279;42.048;24.638;2022-09-09T07:46:05;9.07;;;4.03;;
10463;SDS011;5279;42.048;24.638;2022-09-09T07:48:33;7.27;;;4.20;;
10463;SDS011;5279;42.048;24.638;2022-09-09T07:51:06;5.90;;;3.90;;
10463;SDS011;5279;42.048;24.638;2022-09-09T07:53:35;9.60;;;4.23;;
10463;SDS011;5279;42.048;24.638;2022-09-09T07:56:04;7.13;;;4.40;;
10463;SDS011;5279;42.048;24.638;2022-09-09T07:58:32;8.50;;;4.40;;
10463;SDS011;5279;42.048;24.638;2022-09-09T08:00:59;9.07;;;4.43;;
10463;SDS011;5279;42.048;24.638;2022-09-09T08:03:27;5.97;;;4.20;;
10463;SDS011;5279;42.048;24.638;2022-09-09T08:05:59;4.30;;;3.70;;
10463;SDS011;5279;42.048;24.638;2022-09-09T08:08:27;4.50;;;4.07;;
10463;SDS011;5279;42.048;24.638;2022-09-09T08:11:00;7.90;;;3.90;;
10463;SDS011;5279;42.048;24.638;2022-09-09T08:13:28;6.97;;;3.80;;
10463;SDS011;5279;42.048;24.638;2022-09-09T08:16:02;4.20;;;3.80;;
10463;SDS011;5279;42.048;24.638;2022-09-09T08:18:32;6.43;;;3.77;;
10463;SDS011;5279;42.048;24.638;2022-09-09T08:21:04;8.90;;;3.77;;
10463;SDS011;5279;42.048;24.638;2022-09-09T08:23:33;5.20;;;3.80;;
10463;SDS011;5279;42.048;24.638;2022-09-09T08:26:04;5.17;;;3.67;;
10463;SDS011;5279;42.048;24.638;2022-09-09T08:28:34;7.80;;;3.77;;
10463;SDS011;5279;42.048;24.638;2022-09-09T08:31:07;9.47;;;3.93;;
10463;SDS011;5279;42.048;24.638;2022-09-09T08:33:36;6.77;;;3.80;;
10463;SDS011;5279;42.048;24.638;2022-09-09T08:36:04;5.60;;;3.73;;
10463;SDS011;5279;42.048;24.638;2022-09-09T08:38:34;5.43;;;3.87;;
10463;SDS011;5279;42.048;24.638;2022-09-09T08:41:07;6.33;;;3.90;;
10463;SDS011;5279;42.048;24.638;2022-09-09T08:43:43;7.40;;;3.80;;
10463;SDS011;5279;42.048;24.638;2022-09-09T08:46:14;4.73;;;3.90;;
10463;SDS011;5279;42.048;24.638;2022-09-09T08:48:55;4.80;;;4.17;;
10463;SDS011;5279;42.048;24.638;2022-09-09T08:51:25;4.53;;;3.60;;
10463;SDS011;5279;42.048;24.638;2022-09-09T08:53:55;5.43;;;4.20;;
10463;SDS011;5279;42.048;24.638;2022-09-09T08:56:26;8.87;;;4.07;;
10463;SDS011;5279;42.048;24.638;2022-09-09T08:58:57;6.43;;;3.77;;
10463;SDS011;5279;42.048;24.638;2022-09-09T09:04:22;6.87;;;4.20;;
10463;SDS011;5279;42.048;24.638;2022-09-09T09:07:01;4.43;;;3.87;;
10463;SDS011;5279;42.048;24.638;2022-09-09T09:09:37;7.60;;;3.87;;
10463;SDS011;5279;42.048;24.638;2022-09-09T09:12:15;5.88;;;3.95;;
10463;SDS011;5279;42.048;24.638;2022-09-09T09:14:43;4.95;;;4.22;;
10463;SDS011;5279;42.048;24.638;2022-09-09T09:17:13;7.05;;;4.10;;
10463;SDS011;5279;42.048;24.638;2022-09-09T09:19:45;5.20;;;4.00;;
10463;SDS011;5279;42.048;24.638;2022-09-09T09:22:16;8.48;;;4.10;;
10463;SDS011;5279;42.048;24.638;2022-09-09T09:24:50;5.00;;;3.78;;
10463;SDS011;5279;42.048;24.638;2022-09-09T09:27:21;4.82;;;3.85;;
10463;SDS011;5279;42.048;24.638;2022-09-09T09:29:57;6.72;;;3.83;;
10463;SDS011;5279;42.048;24.638;2022-09-09T09:32:25;5.95;;;3.88;;
10463;SDS011;5279;42.048;24.638;2022-09-09T09:34:58;8.48;;;3.72;;
10463;SDS011;5279;42.048;24.638;2022-09-09T09:37:30;5.38;;;3.80;;
10463;SDS011;5279;42.048;24.638;2022-09-09T09:40:07;4.30;;;3.80;;
10463;SDS011;5279;42.048;24.638;2022-09-09T09:42:35;7.03;;;4.00;;
10463;SDS011;5279;42.048;24.638;2022-09-09T09:45:07;5.47;;;3.53;;
10463;SDS011;5279;42.048;24.638;2022-09-09T09:47:35;6.55;;;3.95;;
10463;SDS011;5279;42.048;24.638;2022-09-09T09:50:03;4.18;;;3.65;;
10463;SDS011;5279;42.048;24.638;2022-09-09T09:52:31;4.00;;;3.67;;
10463;SDS011;5279;42.048;24.638;2022-09-09T09:55:02;4.18;;;3.58;;
10463;SDS011;5279;42.048;24.638;2022-09-09T09:57:30;8.82;;;3.65;;
10463;SDS011;5279;42.048;24.638;2022-09-09T10:00:01;4.20;;;3.58;;
10463;SDS011;5279;42.048;24.638;2022-09-09T10:02:40;5.45;;;3.53;;
10463;SDS011;5279;42.048;24.638;2022-09-09T10:05:13;4.43;;;3.17;;
10463;SDS011;5279;42.048;24.638;2022-09-09T10:07:43;8.30;;;3.83;;
10463;SDS011;5279;42.048;24.638;2022-09-09T10:10:13;5.95;;;3.65;;
10463;SDS011;5279;42.048;24.638;2022-09-09T10:12:49;4.53;;;3.90;;
10463;SDS011;5279;42.048;24.638;2022-09-09T10:15:30;5.95;;;3.92;;
10463;SDS011;5279;42.048;24.638;2022-09-09T10:18:05;6.07;;;4.00;;
10463;SDS011;5279;42.048;24.638;2022-09-09T10:20:44;4.82;;;3.75;;
10463;SDS011;5279;42.048;24.638;2022-09-09T10:23:21;7.57;;;3.58;;
10463;SDS011;5279;42.048;24.638;2022-09-09T10:26:02;5.05;;;3.28;;
10463;SDS011;5279;42.048;24.638;2022-09-09T10:28:54;4.93;;;3.80;;
10463;SDS011;5279;42.048;24.638;2022-09-09T10:31:34;6.15;;;3.33;;
10463;SDS011;5279;42.048;24.638;2022-09-09T10:34:12;4.75;;;3.78;;
10463;SDS011;5279;42.048;24.638;2022-09-09T10:36:49;4.72;;;3.80;;
10463;SDS011;5279;42.048;24.638;2022-09-09T10:39:18;4.63;;;3.80;;
10463;SDS011;5279;42.048;24.638;2022-09-09T10:42:00;6.45;;;4.35;;
10463;SDS011;5279;42.048;24.638;2022-09-09T10:44:37;7.22;;;4.03;;
10463;SDS011;5279;42.048;24.638;2022-09-09T10:53:24;6.82;;;3.72;;
10463;SDS011;5279;42.048;24.638;2022-09-09T10:56:03;7.03;;;3.83;;
10463;SDS011;5279;42.048;24.638;2022-09-09T10:58:35;6.03;;;4.03;;
10463;SDS011;5279;42.048;24.638;2022-09-09T11:01:10;7.97;;;3.80;;
10463;SDS011;5279;42.048;24.638;2022-09-09T11:03:42;5.78;;;4.03;;
10463;SDS011;5279;42.048;24.638;2022-09-09T11:06:14;3.90;;;3.60;;
10463;SDS011;5279;42.048;24.638;2022-09-09T11:08:46;7.30;;;3.80;;
10463;SDS011;5279;42.048;24.638;2022-09-09T11:11:16;6.95;;;3.88;;
10463;SDS011;5279;42.048;24.638;2022-09-09T11:13:47;8.23;;;4.20;;
10463;SDS011;5279;42.048;24.638;2022-09-09T11:16:22;7.25;;;4.00;;
10463;SDS011;5279;42.048;24.638;2022-09-09T11:18:55;7.35;;;4.10;;
10463;SDS011;5279;42.048;24.638;2022-09-09T11:21:26;4.97;;;4.10;;
10463;SDS011;5279;42.048;24.638;2022-09-09T11:23:59;4.30;;;3.90;;
10463;SDS011;5279;42.048;24.638;2022-09-09T11:26:31;5.55;;;3.75;;
10463;SDS011;5279;42.048;24.638;2022-09-09T11:29:18;6.07;;;3.80;;
10463;SDS011;5279;42.048;24.638;2022-09-09T11:32:03;6.28;;;4.75;;
10463;SDS011;5279;42.048;24.638;2022-09-09T11:34:47;5.53;;;4.20;;
10463;SDS011;5279;42.048;24.638;2022-09-09T11:40:23;7.03;;;4.70;;
10463;SDS011;5279;42.048;24.638;2022-09-09T11:43:00;6.45;;;4.63;;
10463;SDS011;5279;42.048;24.638;2022-09-09T11:45:31;7.70;;;5.30;;
10463;SDS011;5279;42.048;24.638;2022-09-09T11:48:01;7.30;;;4.70;;
10463;SDS011;5279;42.048;24.638;2022-09-09T11:50:32;10.70;;;5.32;;
10463;SDS011;5279;42.048;24.638;2022-09-09T11:55:59;7.35;;;5.35;;
10463;SDS011;5279;42.048;24.638;2022-09-09T11:58:28;7.25;;;5.28;;
10463;SDS011;5279;42.048;24.638;2022-09-09T12:01:01;8.32;;;5.32;;
10463;SDS011;5279;42.048;24.638;2022-09-09T12:03:41;7.32;;;5.80;;
10463;SDS011;5279;42.048;24.638;2022-09-09T12:06:11;8.23;;;5.60;;
10463;SDS011;5279;42.048;24.638;2022-09-09T12:08:45;6.93;;;5.53;;
10463;SDS011;5279;42.048;24.638;2022-09-09T12:11:25;6.03;;;5.43;;
10463;SDS011;5279;42.048;24.638;2022-09-09T12:13:53;8.00;;;4.90;;
10463;SDS011;5279;42.048;24.638;2022-09-09T12:16:28;9.73;;;4.93;;
10463;SDS011;5279;42.048;24.638;2022-09-09T12:19:12;7.78;;;5.10;;
10463;SDS011;5279;42.048;24.638;2022-09-09T12:21:43;6.90;;;5.20;;
10463;SDS011;5279;42.048;24.638;2022-09-09T12:24:16;8.25;;;5.95;;
10463;SDS011;5279;42.048;24.638;2022-09-09T12:26:51;6.57;;;5.47;;
10463;SDS011;5279;42.048;24.638;2022-09-09T12:29:26;7.82;;;6.40;;
10463;SDS011;5279;42.048;24.638;2022-09-09T12:32:01;6.47;;;5.32;;
10463;SDS011;5279;42.048;24.638;2022-09-09T12:34:34;8.02;;;5.40;;
10463;SDS011;5279;42.048;24.638;2022-09-09T12:37:08;8.50;;;7.50;;
10463;SDS011;5279;42.048;24.638;2022-09-09T12:39:44;8.40;;;6.82;;
10463;SDS011;5279;42.048;24.638;2022-09-09T12:42:17;6.85;;;6.15;;
10463;SDS011;5279;42.048;24.638;2022-09-09T12:44:52;12.93;;;6.20;;
10463;SDS011;5279;42.048;24.638;2022-09-09T12:47:20;7.53;;;5.45;;
10463;SDS011;5279;42.048;24.638;2022-09-09T12:49:49;11.32;;;5.53;;
10463;SDS011;5279;42.048;24.638;2022-09-09T12:52:18;6.07;;;5.07;;
10463;SDS011;5279;42.048;24.638;2022-09-09T12:54:51;9.35;;;5.50;;
10463;SDS011;5279;42.048;24.638;2022-09-09T12:57:20;8.70;;;5.20;;
10463;SDS011;5279;42.048;24.638;2022-09-09T12:59:50;11.52;;;5.20;;
10463;SDS011;5279;42.048;24.638;2022-09-09T13:02:19;7.72;;;4.88;;
10463;SDS011;5279;42.048;24.638;2022-09-09T13:04:47;10.10;;;4.97;;
10463;SDS011;5279;42.048;24.638;2022-09-09T13:07:15;6.57;;;5.65;;
10463;SDS011;5279;42.048;24.638;2022-09-09T13:09:42;8.43;;;4.90;;
10463;SDS011;5279;42.048;24.638;2022-09-09T13:12:11;9.35;;;5.45;;
10463;SDS011;5279;42.048;24.638;2022-09-09T13:14:42;6.55;;;5.68;;
10463;SDS011;5279;42.048;24.638;2022-09-09T13:17:15;8.93;;;4.80;;
10463;SDS011;5279;42.048;24.638;2022-09-09T13:19:45;9.80;;;5.25;;
10463;SDS011;5279;42.048;24.638;2022-09-09T13:22:12;8.07;;;5.00;;
10463;SDS011;5279;42.048;24.638;2022-09-09T13:24:40;5.72;;;4.80;;
10463;SDS011;5279;42.048;24.638;2022-09-09T13:27:22;6.55;;;5.38;;
10463;SDS011;5279;42.048;24.638;2022-09-09T13:29:54;7.25;;;5.35;;
10463;SDS011;5279;42.048;24.638;2022-09-09T13:32:22;5.72;;;5.22;;
10463;SDS011;5279;42.048;24.638;2022-09-09T13:34:50;6.68;;;5.28;;
10463;SDS011;5279;42.048;24.638;2022-09-09T13:37:20;6.68;;;5.32;;
10463;SDS011;5279;42.048;24.638;2022-09-09T13:39:52;9.82;;;4.90;;
10463;SDS011;5279;42.048;24.638;2022-09-09T13:42:24;8.90;;;5.30;;
10463;SDS011;5279;42.048;24.638;2022-09-09T13:44:54;6.18;;;5.57;;
10463;SDS011;5279;42.048;24.638;2022-09-09T13:47:26;8.10;;;5.55;;
10463;SDS011;5279;42.048;24.638;2022-09-09T13:49:55;5.63;;;5.13;;
10463;SDS011;5279;42.048;24.638;2022-09-09T13:52:22;8.15;;;5.38;;
10463;SDS011;5279;42.048;24.638;2022-09-09T13:54:51;7.35;;;5.60;;
10463;SDS011;5279;42.048;24.638;2022-09-09T13:57:20;8.45;;;5.30;;
10463;SDS011;5279;42.048;24.638;2022-09-09T13:59:48;7.65;;;4.97;;
10463;SDS011;5279;42.048;24.638;2022-09-09T14:02:17;5.93;;;5.22;;
10463;SDS011;5279;42.048;24.638;2022-09-09T14:04:44;8.55;;;5.68;;
10463;SDS011;5279;42.048;24.638;2022-09-09T14:07:11;9.43;;;5.32;;
10463;SDS011;5279;42.048;24.638;2022-09-09T14:09:40;6.78;;;5.05;;
10463;SDS011;5279;42.048;24.638;2022-09-09T14:12:08;7.40;;;5.80;;
10463;SDS011;5279;42.048;24.638;2022-09-09T14:14:36;7.22;;;5.65;;
10463;SDS011;5279;42.048;24.638;2022-09-09T14:17:02;9.00;;;5.57;;
10463;SDS011;5279;42.048;24.638;2022-09-09T14:19:31;9.48;;;5.60;;
10463;SDS011;5279;42.048;24.638;2022-09-09T14:21:58;7.63;;;5.55;;
10463;SDS011;5279;42.048;24.638;2022-09-09T14:24:25;6.47;;;5.35;;
10463;SDS011;5279;42.048;24.638;2022-09-09T14:26:52;7.25;;;5.53;;
10463;SDS011;5279;42.048;24.638;2022-09-09T14:29:19;5.82;;;5.13;;
10463;SDS011;5279;42.048;24.638;2022-09-09T14:31:46;5.53;;;5.00;;
10463;SDS011;5279;42.048;24.638;2022-09-09T14:34:13;6.28;;;5.05;;
10463;SDS011;5279;42.048;24.638;2022-09-09T14:36:41;6.78;;;4.82;;
10463;SDS011;5279;42.048;24.638;2022-09-09T14:39:09;9.23;;;5.50;;
10463;SDS011;5279;42.048;24.638;2022-09-09T14:41:36;6.90;;;5.10;;
10463;SDS011;5279;42.048;24.638;2022-09-09T14:44:03;6.20;;;4.70;;
10463;SDS011;5279;42.048;24.638;2022-09-09T14:46:30;7.47;;;4.80;;
10463;SDS011;5279;42.048;24.638;2022-09-09T14:48:58;6.90;;;4.75;;
10463;SDS011;5279;42.048;24.638;2022-09-09T14:51:25;6.05;;;5.20;;
10463;SDS011;5279;42.048;24.638;2022-09-09T14:53:55;7.28;;;5.53;;
10463;SDS011;5279;42.048;24.638;2022-09-09T14:56:24;7.15;;;4.65;;
10463;SDS011;5279;42.048;24.638;2022-09-09T14:58:52;9.48;;;5.18;;
10463;SDS011;5279;42.048;24.638;2022-09-09T15:01:21;9.70;;;4.65;;
10463;SDS011;5279;42.048;24.638;2022-09-09T15:03:50;7.28;;;5.28;;
10463;SDS011;5279;42.048;24.638;2022-09-09T15:06:18;6.05;;;4.63;;
10463;SDS011;5279;42.048;24.638;2022-09-09T15:08:45;11.52;;;5.25;;
10463;SDS011;5279;42.048;24.638;2022-09-09T15:11:14;5.20;;;4.60;;
10463;SDS011;5279;42.048;24.638;2022-09-09T15:13:42;5.25;;;4.45;;
10463;SDS011;5279;42.048;24.638;2022-09-09T15:16:10;6.75;;;4.97;;
10463;SDS011;5279;42.048;24.638;2022-09-09T15:18:38;7.90;;;5.00;;
10463;SDS011;5279;42.048;24.638;2022-09-09T15:21:08;10.57;;;5.00;;
10463;SDS011;5279;42.048;24.638;2022-09-09T15:23:35;6.93;;;5.00;;
10463;SDS011;5279;42.048;24.638;2022-09-09T15:26:03;5.57;;;4.60;;
10463;SDS011;5279;42.048;24.638;2022-09-09T15:28:32;10.83;;;5.50;;
10463;SDS011;5279;42.048;24.638;2022-09-09T15:31:04;8.27;;;5.10;;
10463;SDS011;5279;42.048;24.638;2022-09-09T15:33:32;8.07;;;5.30;;
10463;SDS011;5279;42.048;24.638;2022-09-09T15:36:11;4.97;;;4.37;;
10463;SDS011;5279;42.048;24.638;2022-09-09T15:38:39;7.03;;;4.90;;
10463;SDS011;5279;42.048;24.638;2022-09-09T15:41:06;7.13;;;5.00;;
10463;SDS011;5279;42.048;24.638;2022-09-09T15:43:34;11.33;;;5.80;;
10463;SDS011;5279;42.048;24.638;2022-09-09T15:46:05;7.57;;;4.90;;